Palmyra, Missouri
Current Conditions -  °F | °C
As of 12:55 PM on Thursday 30 Oct 2014 (Local Time) from KHAE Reporting Station
Overcast Overcast  
Wind Chill: 54°   Ceiling: 9000
Heat Index: 54°   Visibility: 10mi
Dew Point: 39°   Wind: 13mph
Humidity: 58%   Direction: 170°S
Pressure: 30.01"   Gusts: 17mph
Location:  39.79°N, 91.52°W
Report Text: KHAE 301755Z AUTO 17011G15KT 10SM OVC090 12/04 A3001 RMK AO2
Loading
Personal Weather Stations






























Interactive Weather Map
Tropical Storm Tracking
New forecast layout! Learn more

10-Day Weather Forecast

Advertisements
Track Severe Weather on mobile